createdAt,value
2023-04-20T00:00:22.038Z,73.62
2023-04-20T00:02:48.742Z,74.49
2023-04-20T00:05:15.374Z,73.19
2023-04-20T00:07:41.888Z,73.66
2023-04-20T00:10:09.093Z,73.16
2023-04-20T00:12:35.864Z,73.33
2023-04-20T00:15:02.515Z,73.39
2023-04-20T00:17:28.926Z,73.32
2023-04-20T00:19:55.345Z,73.83
2023-04-20T00:22:21.714Z,73.02
2023-04-20T00:24:48.120Z,73.58
2023-04-20T00:27:14.516Z,73.35
2023-04-20T00:29:41.029Z,73.41
2023-04-20T00:32:07.428Z,74.00
2023-04-20T00:34:33.829Z,73.31
2023-04-20T00:37:00.912Z,73.67
2023-04-20T00:39:27.436Z,73.06
2023-04-20T00:41:54.242Z,73.75
2023-04-20T00:44:20.691Z,73.98
2023-04-20T00:46:47.149Z,73.66
2023-04-20T00:49:13.629Z,74.09
2023-04-20T00:51:40.145Z,74.36
2023-04-20T00:54:07.012Z,74.53
2023-04-20T00:56:34.053Z,74.01
2023-04-20T00:59:01.806Z,74.48
2023-04-20T01:01:29.025Z,74.43
2023-04-20T01:03:55.754Z,74.51
2023-04-20T01:06:22.429Z,75.04
2023-04-20T01:08:51.809Z,75.09
2023-04-20T01:11:18.492Z,74.42
2023-04-20T01:13:45.348Z,75.13
2023-04-20T01:16:12.178Z,74.91
2023-04-20T01:18:47.187Z,75.00
2023-04-20T01:21:14.885Z,75.07
2023-04-20T01:23:41.353Z,75.64
2023-04-20T01:26:09.316Z,75.35
2023-04-20T01:28:35.946Z,75.82
2023-04-20T01:31:04.141Z,75.42
2023-04-20T01:33:31.939Z,75.26
2023-04-20T01:35:58.365Z,75.78
2023-04-20T01:38:25.803Z,75.41
2023-04-20T01:40:52.908Z,75.20
2023-04-20T01:43:22.418Z,74.65
2023-04-20T01:45:48.938Z,74.47
2023-04-20T01:48:15.619Z,74.53
2023-04-20T01:50:42.216Z,75.07
2023-04-20T01:53:08.687Z,75.17
2023-04-20T01:55:35.210Z,75.22
2023-04-20T01:58:01.637Z,75.34
2023-04-20T02:00:28.103Z,75.67
2023-04-20T02:03:53.923Z,75.96
2023-04-20T02:06:21.070Z,76.03
2023-04-20T02:08:47.831Z,76.45
2023-04-20T02:11:14.364Z,76.31
2023-04-20T02:13:40.904Z,75.95
2023-04-20T02:16:07.540Z,76.35
2023-04-20T02:18:34.041Z,76.75
2023-04-20T02:21:01.354Z,76.78
2023-04-20T02:23:27.921Z,76.93
2023-04-20T02:25:55.538Z,76.77
2023-04-20T02:28:22.007Z,76.97
2023-04-20T02:30:48.516Z,76.72
2023-04-20T02:33:14.982Z,77.33
2023-04-20T02:35:41.378Z,77.25
2023-04-20T02:38:10.670Z,78.36
2023-04-20T02:40:38.661Z,77.80
2023-04-20T02:43:05.863Z,78.16
2023-04-20T02:45:34.184Z,77.88
2023-04-20T02:48:00.862Z,78.12
2023-04-20T02:50:30.697Z,78.98
2023-04-20T02:53:23.276Z,78.45
2023-04-20T02:55:57.908Z,78.54
2023-04-20T02:58:36.051Z,78.76
2023-04-20T03:01:25.742Z,78.58
2023-04-20T03:04:00.589Z,78.49
2023-04-20T03:06:27.819Z,78.45
2023-04-20T03:08:56.556Z,78.66
2023-04-20T03:11:52.871Z,79.01
2023-04-20T03:14:34.699Z,78.70
2023-04-20T03:17:02.573Z,78.86
2023-04-20T03:19:29.008Z,78.49
2023-04-20T03:21:55.660Z,78.47
2023-04-20T03:24:22.772Z,78.48
2023-04-20T03:26:49.492Z,78.27
2023-04-20T03:29:19.274Z,78.41
2023-04-20T03:31:46.461Z,78.40
2023-04-20T03:34:12.946Z,78.34
2023-04-20T03:36:40.045Z,78.63
2023-04-20T03:39:06.861Z,78.97
2023-04-20T03:41:33.327Z,78.77
2023-04-20T03:43:59.921Z,79.19
2023-04-20T03:46:26.767Z,79.00
2023-04-20T03:48:53.294Z,79.65
2023-04-20T03:51:19.738Z,79.82
2023-04-20T03:53:46.219Z,80.43
2023-04-20T03:56:13.644Z,80.67
2023-04-20T03:58:40.217Z,81.03
2023-04-20T04:01:13.340Z,81.48
2023-04-20T04:03:44.669Z,80.92
2023-04-20T04:06:12.447Z,81.17
2023-04-20T04:08:38.891Z,81.27
2023-04-20T04:11:05.363Z,81.52
2023-04-20T04:13:34.438Z,81.27
2023-04-20T04:16:02.108Z,81.50
2023-04-20T04:18:32.313Z,81.78
2023-04-20T04:21:05.156Z,81.48
2023-04-20T04:23:34.556Z,82.14
2023-04-20T04:26:17.897Z,81.88
2023-04-20T04:28:45.903Z,81.89
2023-04-20T04:31:21.528Z,82.55
2023-04-20T04:33:48.224Z,82.08
2023-04-20T04:36:28.685Z,82.75
2023-04-20T04:38:57.588Z,82.68
2023-04-20T04:41:25.493Z,82.29
2023-04-20T04:43:54.384Z,82.70
2023-04-20T04:46:27.712Z,82.50
2023-04-20T04:48:56.848Z,82.88
2023-04-20T04:51:24.122Z,82.82
2023-04-20T04:53:50.727Z,82.45
2023-04-20T04:56:18.440Z,82.70
2023-04-20T04:58:45.575Z,82.83
2023-04-20T05:01:12.212Z,82.49
2023-04-20T05:03:38.806Z,82.64
2023-04-20T05:06:05.616Z,82.90
2023-04-20T05:08:32.084Z,82.62
2023-04-20T05:10:58.550Z,82.28
2023-04-20T05:13:25.030Z,82.79
2023-04-20T05:15:51.502Z,82.88
2023-04-20T05:18:18.092Z,82.51
2023-04-20T05:20:44.531Z,82.74
2023-04-20T05:23:11.365Z,83.12
2023-04-20T05:25:37.934Z,82.62
2023-04-20T05:28:04.561Z,82.94
2023-04-20T05:30:31.371Z,83.08
2023-04-20T05:32:57.815Z,83.30
2023-04-20T05:35:24.320Z,82.89
2023-04-20T05:37:50.761Z,82.72
2023-04-20T05:40:17.395Z,83.39
2023-04-20T05:42:44.832Z,83.21
2023-04-20T05:45:11.480Z,82.82
2023-04-20T05:47:37.980Z,83.10
2023-04-20T05:50:04.956Z,83.53
2023-04-20T05:52:31.424Z,83.61
2023-04-20T05:54:59.359Z,83.17
2023-04-20T05:57:26.003Z,83.20
2023-04-20T05:59:52.599Z,83.61
2023-04-20T06:02:19.266Z,83.69
2023-04-20T06:04:46.221Z,83.40
2023-04-20T06:07:12.794Z,83.24
2023-04-20T06:09:39.234Z,83.58
2023-04-20T06:12:05.835Z,83.40
2023-04-20T06:14:32.279Z,83.47
2023-04-20T06:16:58.713Z,83.83
2023-04-20T06:19:25.140Z,83.40
2023-04-20T06:21:51.642Z,83.19
2023-04-20T06:24:18.112Z,83.17
2023-04-20T06:26:44.524Z,83.70
2023-04-20T06:29:10.967Z,83.37
2023-04-20T06:31:37.467Z,83.55
2023-04-20T06:34:04.019Z,83.75
2023-04-20T06:36:31.188Z,83.36
2023-04-20T06:38:57.647Z,83.14
2023-04-20T06:41:24.074Z,83.80
2023-04-20T06:43:50.572Z,84.02
2023-04-20T06:46:17.168Z,84.47
2023-04-20T06:48:43.635Z,84.37
2023-04-20T06:51:12.907Z,84.11
2023-04-20T06:53:39.351Z,84.79
2023-04-20T06:56:06.556Z,84.66
2023-04-20T06:58:32.955Z,84.43
2023-04-20T07:00:59.460Z,84.62
2023-04-20T07:03:25.993Z,85.19
2023-04-20T07:05:52.554Z,84.54
2023-04-20T07:08:18.997Z,85.61
2023-04-20T07:10:45.538Z,85.62
2023-04-20T07:13:11.980Z,85.00
2023-04-20T07:15:38.435Z,85.57
2023-04-20T07:18:05.146Z,85.74
2023-04-20T07:20:31.686Z,86.08
2023-04-20T07:22:58.111Z,85.58
2023-04-20T07:25:25.534Z,85.96
2023-04-20T07:27:51.988Z,85.82
2023-04-20T07:30:18.404Z,86.19
2023-04-20T07:32:45.039Z,86.08
2023-04-20T07:35:11.602Z,85.46
2023-04-20T07:37:38.072Z,85.90
2023-04-20T07:40:06.710Z,85.50
2023-04-20T07:42:34.813Z,86.25
2023-04-20T07:45:01.561Z,86.52
2023-04-20T07:47:28.080Z,86.03
2023-04-20T07:49:54.871Z,86.11
2023-04-20T07:52:21.472Z,86.42
2023-04-20T07:54:48.038Z,86.78
2023-04-20T07:57:15.125Z,86.68
2023-04-20T07:59:41.696Z,87.26
2023-04-20T08:02:08.681Z,87.45
2023-04-20T08:04:38.865Z,87.03
2023-04-20T08:07:05.681Z,87.45
2023-04-20T08:09:32.326Z,87.22
2023-04-20T08:11:58.796Z,87.90
2023-04-20T08:14:25.237Z,88.13
2023-04-20T08:16:51.722Z,88.73
2023-04-20T08:19:18.383Z,88.62
2023-04-20T08:21:45.023Z,89.12
2023-04-20T08:24:12.165Z,88.42
2023-04-20T08:26:39.607Z,89.17
2023-04-20T08:29:06.804Z,88.82
2023-04-20T08:31:33.284Z,88.93
2023-04-20T08:33:59.905Z,89.27
2023-04-20T08:36:26.720Z,89.12
2023-04-20T08:38:57.034Z,89.77
2023-04-20T08:41:25.307Z,90.10
2023-04-20T08:43:51.999Z,89.54
2023-04-20T08:46:19.342Z,89.99
2023-04-20T08:48:48.539Z,89.61
2023-04-20T08:51:17.010Z,90.42
2023-04-20T08:53:44.059Z,90.15
2023-04-20T08:56:10.899Z,90.52
2023-04-20T08:58:42.112Z,91.36
2023-04-20T09:01:10.677Z,90.81
2023-04-20T09:03:39.248Z,91.17
2023-04-20T09:06:07.053Z,91.71
2023-04-20T09:08:38.899Z,91.59
2023-04-20T09:11:05.560Z,91.42
2023-04-20T09:13:32.522Z,92.21
2023-04-20T09:16:10.172Z,92.21
2023-04-20T09:18:37.969Z,91.71
2023-04-20T09:21:08.938Z,92.05
2023-04-20T09:23:35.354Z,92.16
2023-04-20T09:26:01.817Z,91.66
2023-04-20T09:28:41.709Z,92.76
2023-04-20T09:31:18.939Z,92.52
2023-04-20T09:33:45.597Z,92.66
2023-04-20T09:36:12.131Z,92.67
2023-04-20T09:38:38.604Z,92.74
2023-04-20T09:41:06.901Z,92.31
2023-04-20T09:43:35.312Z,92.95
2023-04-20T09:46:03.362Z,92.94
2023-04-20T09:48:32.046Z,92.13
2023-04-20T09:51:01.853Z,93.16
2023-04-20T09:53:30.174Z,93.27
2023-04-20T09:55:58.403Z,92.69
2023-04-20T09:58:24.838Z,93.14
2023-04-20T10:00:51.597Z,93.10
2023-04-20T10:03:19.360Z,92.72
2023-04-20T10:05:46.235Z,93.35
2023-04-20T10:08:12.682Z,93.13
2023-04-20T10:10:49.868Z,92.32
2023-04-20T10:13:19.417Z,93.02
2023-04-20T10:15:46.260Z,93.00
2023-04-20T10:18:21.098Z,92.78
2023-04-20T10:20:47.680Z,92.12
2023-04-20T10:23:15.970Z,92.55
2023-04-20T10:25:44.969Z,92.45
2023-04-20T10:28:11.954Z,92.29
2023-04-20T10:30:51.002Z,92.41
2023-04-20T10:33:18.052Z,92.58
2023-04-20T10:35:56.114Z,93.22
2023-04-20T10:38:33.419Z,93.14
2023-04-20T10:41:10.563Z,92.95
2023-04-20T10:43:43.715Z,92.80
2023-04-20T10:46:24.481Z,92.55
2023-04-20T10:48:51.702Z,93.57
2023-04-20T10:51:18.930Z,93.00
2023-04-20T10:53:45.480Z,92.79
2023-04-20T10:56:11.996Z,92.58
2023-04-20T10:58:38.568Z,92.91
2023-04-20T11:01:05.309Z,93.96
2023-04-20T11:03:34.310Z,93.37
2023-04-20T11:06:02.553Z,92.86
2023-04-20T11:08:43.139Z,92.83
2023-04-20T11:11:19.809Z,93.19
2023-04-20T11:13:47.117Z,93.64
2023-04-20T11:16:16.418Z,93.20
2023-04-20T11:18:56.406Z,93.64
2023-04-20T11:21:22.868Z,93.41
2023-04-20T11:23:50.360Z,93.86
2023-04-20T11:26:17.093Z,93.33
2023-04-20T11:28:55.919Z,93.71
2023-04-20T11:31:23.317Z,93.72
2023-04-20T11:33:50.163Z,95.12
2023-04-20T11:36:24.018Z,94.71
2023-04-20T11:38:51.036Z,94.54
2023-04-20T11:41:17.836Z,95.15
2023-04-20T11:43:45.574Z,94.40
2023-04-20T11:46:16.803Z,94.31
2023-04-20T11:48:43.466Z,94.78
2023-04-20T11:51:09.976Z,94.78
2023-04-20T11:53:37.428Z,94.48
2023-04-20T11:56:04.576Z,94.83
2023-04-20T11:58:31.098Z,94.92
2023-04-20T12:00:57.613Z,94.61
2023-04-20T12:03:24.158Z,95.12
2023-04-20T12:05:51.208Z,95.06
2023-04-20T12:08:17.756Z,95.02
2023-04-20T12:10:44.677Z,94.39
2023-04-20T12:13:11.157Z,93.83
2023-04-20T12:15:37.694Z,93.82
2023-04-20T12:18:04.314Z,94.32
2023-04-20T12:20:30.784Z,94.54
2023-04-20T12:22:58.555Z,93.73
2023-04-20T12:25:25.546Z,94.07
2023-04-20T12:27:52.077Z,94.54
2023-04-20T12:30:18.548Z,94.30
2023-04-20T12:32:45.038Z,93.98
2023-04-20T12:35:11.617Z,94.35
2023-04-20T12:37:38.065Z,94.79
2023-04-20T12:40:06.411Z,94.10
2023-04-20T12:42:33.013Z,93.79
2023-04-20T12:44:59.487Z,93.60
2023-04-20T12:47:26.175Z,93.90
2023-04-20T12:49:52.572Z,93.91
2023-04-20T12:52:19.183Z,94.23
2023-04-20T12:54:46.228Z,94.06
2023-04-20T12:57:13.032Z,94.11
2023-04-20T12:59:39.417Z,93.82
2023-04-20T13:02:06.302Z,93.72
2023-04-20T13:04:32.895Z,93.75
2023-04-20T13:06:59.330Z,94.66
2023-04-20T13:09:27.138Z,94.21
2023-04-20T13:11:53.906Z,94.12
2023-04-20T13:14:20.920Z,93.96
2023-04-20T13:16:47.794Z,93.98
2023-04-20T13:19:14.489Z,94.28
2023-04-20T13:21:40.951Z,93.45
2023-04-20T13:24:07.589Z,93.60
2023-04-20T13:26:34.238Z,94.22
2023-04-20T13:29:00.772Z,93.72
2023-04-20T13:31:27.279Z,94.35
2023-04-20T13:33:54.843Z,94.77
2023-04-20T13:36:23.068Z,94.29
2023-04-20T13:38:54.398Z,95.08
2023-04-20T13:41:20.961Z,94.68
2023-04-20T13:43:47.419Z,94.88
2023-04-20T13:46:15.300Z,95.38
2023-04-20T13:48:41.962Z,95.10
2023-04-20T13:51:08.574Z,94.97
2023-04-20T13:53:35.100Z,95.11
2023-04-20T13:56:01.648Z,94.88
2023-04-20T13:58:28.727Z,94.80
2023-04-20T14:00:55.313Z,94.27
2023-04-20T14:03:21.974Z,94.78
2023-04-20T14:05:50.324Z,95.17
2023-04-20T14:08:18.131Z,94.58
2023-04-20T14:10:44.543Z,94.58
2023-04-20T14:13:11.195Z,95.46
2023-04-20T14:15:37.824Z,95.48
2023-04-20T14:18:04.409Z,94.98
2023-04-20T14:20:30.873Z,95.00
2023-04-20T14:22:57.336Z,95.58
2023-04-20T14:25:23.800Z,94.79
2023-04-20T14:27:50.296Z,95.83
2023-04-20T14:30:16.717Z,96.03
2023-04-20T14:32:53.998Z,95.84
2023-04-20T14:35:20.720Z,96.93
2023-04-20T14:37:47.122Z,96.99
2023-04-20T14:40:13.661Z,96.98
2023-04-20T14:42:40.655Z,96.66
2023-04-20T14:45:08.162Z,96.33
2023-04-20T14:47:34.777Z,96.78
2023-04-20T14:50:01.221Z,97.35
2023-04-20T14:52:27.822Z,97.27
2023-04-20T14:54:54.274Z,97.87
2023-04-20T14:57:20.729Z,97.17
2023-04-20T14:59:47.150Z,97.66
2023-04-20T15:02:14.192Z,97.53
2023-04-20T15:04:40.897Z,97.84
2023-04-20T15:07:07.480Z,98.11
2023-04-20T15:09:33.961Z,98.39
2023-04-20T15:12:01.851Z,99.00
2023-04-20T15:14:28.341Z,99.15
2023-04-20T15:16:55.024Z,98.92
2023-04-20T15:19:22.784Z,98.90
2023-04-20T15:21:49.247Z,98.76
2023-04-20T15:24:15.961Z,98.94
2023-04-20T15:26:42.493Z,99.93
2023-04-20T15:29:08.922Z,99.52
2023-04-20T15:31:35.487Z,99.43
2023-04-20T15:34:01.930Z,99.40
2023-04-20T15:36:28.588Z,99.80
2023-04-20T15:38:57.439Z,99.91
2023-04-20T15:41:24.272Z,99.35
2023-04-20T15:43:51.276Z,99.70
2023-04-20T15:46:17.782Z,99.96
2023-04-20T15:48:44.901Z,100.00
2023-04-20T15:51:11.531Z,99.62
2023-04-20T15:53:38.066Z,99.79
2023-04-20T15:56:04.761Z,99.87
2023-04-20T15:58:31.210Z,100.00
2023-04-20T16:00:57.840Z,100.00
2023-04-20T16:03:24.517Z,100.00
2023-04-20T16:05:51.207Z,100.00
2023-04-20T16:08:18.936Z,100.00
2023-04-20T16:10:45.380Z,100.00
2023-04-20T16:13:11.951Z,100.00
2023-04-20T16:15:39.036Z,100.00
2023-04-20T16:18:05.704Z,100.00
2023-04-20T16:20:32.288Z,100.00
2023-04-20T16:22:58.801Z,100.00
2023-04-20T16:25:25.841Z,100.00
2023-04-20T16:27:52.472Z,100.00
2023-04-20T16:30:19.077Z,100.00
2023-04-20T16:32:45.871Z,100.00
2023-04-20T16:35:12.547Z,100.00
2023-04-20T16:37:39.037Z,100.00
2023-04-20T16:40:06.198Z,100.00
2023-04-20T16:42:32.697Z,100.00
2023-04-20T16:45:00.382Z,100.00
2023-04-20T16:47:26.995Z,100.00
2023-04-20T16:49:53.665Z,100.00
2023-04-20T16:52:20.090Z,100.00
2023-04-20T16:54:46.505Z,100.00
2023-04-20T16:57:12.918Z,100.00
2023-04-20T16:59:39.346Z,100.00
2023-04-20T17:02:06.058Z,100.00
2023-04-20T17:04:32.785Z,100.00
2023-04-20T17:06:59.313Z,100.00
2023-04-20T17:09:25.939Z,100.00
2023-04-20T17:11:52.728Z,100.00
2023-04-20T17:14:19.284Z,100.00
2023-04-20T17:16:45.983Z,100.00
2023-04-20T17:19:12.499Z,100.00
2023-04-20T17:21:40.460Z,99.95
2023-04-20T17:24:06.932Z,99.73
2023-04-20T17:26:33.377Z,99.49
2023-04-20T17:29:00.297Z,98.74
2023-04-20T17:31:26.780Z,98.67
2023-04-20T17:33:53.203Z,98.15
2023-04-20T17:36:19.594Z,98.90
2023-04-20T17:38:46.380Z,98.16
2023-04-20T17:41:12.855Z,98.61
2023-04-20T17:43:40.538Z,98.34
2023-04-20T17:46:07.815Z,98.37
2023-04-20T17:48:34.495Z,98.83
2023-04-20T17:51:00.956Z,97.87
2023-04-20T17:53:27.598Z,97.91
2023-04-20T17:55:54.023Z,98.75
2023-04-20T17:58:20.538Z,97.68
2023-04-20T18:00:47.680Z,98.05
2023-04-20T18:03:14.839Z,98.55
2023-04-20T18:05:41.966Z,98.39
2023-04-20T18:08:10.048Z,97.97
2023-04-20T18:10:37.501Z,99.03
2023-04-20T18:13:04.148Z,98.25
2023-04-20T18:15:30.620Z,97.66
2023-04-20T18:17:57.152Z,98.53
2023-04-20T18:20:23.905Z,98.39
2023-04-20T18:22:50.594Z,99.68
2023-04-20T18:25:18.850Z,98.70
2023-04-20T18:27:45.895Z,98.72
2023-04-20T18:30:13.715Z,99.33
2023-04-20T18:32:40.550Z,100.00
2023-04-20T18:35:07.884Z,99.13
2023-04-20T18:37:34.287Z,99.21
2023-04-20T18:40:00.763Z,98.54
2023-04-20T18:42:27.274Z,98.79
2023-04-20T18:44:53.737Z,98.98
2023-04-20T18:47:22.038Z,99.58
2023-04-20T18:49:48.486Z,98.94
2023-04-20T18:52:14.930Z,99.86
2023-04-20T18:54:41.677Z,98.70
2023-04-20T18:57:08.427Z,98.94
2023-04-20T18:59:34.959Z,99.39
2023-04-20T19:02:01.538Z,99.07
2023-04-20T19:04:29.218Z,98.41
2023-04-20T19:06:55.757Z,98.80
2023-04-20T19:09:22.188Z,98.98
2023-04-20T19:11:49.856Z,99.41
2023-04-20T19:14:16.455Z,98.62
2023-04-20T19:16:43.218Z,98.38
2023-04-20T19:19:10.166Z,98.18
2023-04-20T19:21:36.591Z,98.14
2023-04-20T19:24:03.174Z,98.29
2023-04-20T19:26:29.618Z,98.87
2023-04-20T19:28:57.661Z,98.50
2023-04-20T19:31:24.122Z,98.29
2023-04-20T19:33:50.585Z,98.46
2023-04-20T19:36:19.105Z,98.42
2023-04-20T19:38:45.797Z,98.15
2023-04-20T19:41:12.300Z,98.03
2023-04-20T19:43:38.850Z,98.61
2023-04-20T19:46:09.460Z,98.99
2023-04-20T19:48:36.741Z,97.93
2023-04-20T19:51:03.876Z,97.82
2023-04-20T19:53:30.445Z,97.46
2023-04-20T19:55:57.189Z,98.11
2023-04-20T19:58:23.732Z,98.18
2023-04-20T20:00:50.411Z,98.43
2023-04-20T20:03:16.966Z,97.62
2023-04-20T20:05:44.045Z,97.58
2023-04-20T20:08:11.636Z,97.88
2023-04-20T20:10:38.098Z,97.15
2023-04-20T20:13:04.728Z,97.41
2023-04-20T20:15:32.175Z,96.83
2023-04-20T20:17:59.404Z,97.86
2023-04-20T20:20:32.258Z,97.32
2023-04-20T20:22:59.821Z,97.29
2023-04-20T20:25:26.458Z,98.06
2023-04-20T20:27:53.073Z,97.66
2023-04-20T20:30:19.646Z,96.71
2023-04-20T20:32:46.638Z,96.92
2023-04-20T20:35:13.302Z,97.76
2023-04-20T20:37:40.733Z,97.78
2023-04-20T20:40:10.335Z,96.99
2023-04-20T20:42:38.744Z,97.68
2023-04-20T20:45:07.161Z,98.10
2023-04-20T20:47:33.925Z,97.56
2023-04-20T20:50:00.350Z,97.76
2023-04-20T20:52:26.798Z,98.43
2023-04-20T20:54:53.267Z,98.46
2023-04-20T20:57:20.590Z,98.52
2023-04-20T20:59:47.013Z,98.10
2023-04-20T21:02:13.556Z,98.17
2023-04-20T21:04:40.144Z,98.10
2023-04-20T21:07:06.696Z,98.23
2023-04-20T21:09:33.118Z,98.63
2023-04-20T21:12:00.754Z,98.60
2023-04-20T21:14:27.321Z,97.25
2023-04-20T21:16:53.919Z,98.18
2023-04-20T21:19:20.705Z,98.13
2023-04-20T21:21:47.511Z,98.52
2023-04-20T21:24:13.989Z,98.38
2023-04-20T21:26:40.418Z,98.21
2023-04-20T21:29:07.125Z,98.33
2023-04-20T21:31:33.631Z,98.64
2023-04-20T21:34:00.461Z,99.18
2023-04-20T21:36:27.839Z,99.53
2023-04-20T21:38:54.303Z,98.82
2023-04-20T21:41:21.657Z,98.61
2023-04-20T21:43:48.067Z,98.94
2023-04-20T21:46:17.538Z,98.87
2023-04-20T21:48:43.999Z,99.41
2023-04-20T21:51:17.609Z,98.19
2023-04-20T21:53:44.489Z,98.64
2023-04-20T21:56:11.369Z,98.18
2023-04-20T21:58:37.751Z,98.17
2023-04-20T22:01:04.298Z,98.92
2023-04-20T22:03:31.343Z,98.07
2023-04-20T22:05:58.789Z,98.99
2023-04-20T22:08:25.688Z,98.52
2023-04-20T22:10:52.444Z,98.60
2023-04-20T22:13:18.909Z,97.66
2023-04-20T22:15:47.305Z,98.34
2023-04-20T22:18:14.334Z,98.46
2023-04-20T22:20:40.788Z,98.35
2023-04-20T22:23:07.210Z,97.92
2023-04-20T22:25:33.652Z,98.18
2023-04-20T22:28:00.147Z,97.90
2023-04-20T22:30:26.700Z,97.95
2023-04-20T22:32:53.147Z,97.58
2023-04-20T22:35:19.864Z,98.00
2023-04-20T22:37:46.310Z,97.63
2023-04-20T22:40:14.107Z,98.19
2023-04-20T22:42:40.630Z,97.84
2023-04-20T22:45:09.417Z,97.92
2023-04-20T22:47:36.043Z,98.65
2023-04-20T22:50:03.359Z,97.67
2023-04-20T22:52:29.852Z,98.02
2023-04-20T22:54:56.380Z,97.70
2023-04-20T22:57:22.885Z,98.28
2023-04-20T22:59:49.375Z,98.51
2023-04-20T23:02:16.439Z,99.09
2023-04-20T23:04:45.934Z,98.63
2023-04-20T23:07:12.316Z,98.33
2023-04-20T23:09:41.218Z,99.38
2023-04-20T23:12:11.548Z,99.40
2023-04-20T23:14:39.067Z,98.82
2023-04-20T23:17:06.537Z,98.75
2023-04-20T23:19:33.376Z,100.00
2023-04-20T23:22:00.758Z,99.53
2023-04-20T23:24:27.251Z,99.59
2023-04-20T23:26:53.757Z,99.47
2023-04-20T23:29:20.312Z,99.96
2023-04-20T23:31:46.922Z,100.00
2023-04-20T23:34:13.457Z,99.44
2023-04-20T23:36:39.927Z,99.13
2023-04-20T23:39:06.671Z,99.07
2023-04-20T23:41:33.192Z,99.10
2023-04-20T23:43:59.683Z,99.08
2023-04-20T23:46:26.753Z,99.74
2023-04-20T23:48:55.292Z,99.62
2023-04-20T23:51:22.045Z,99.17
2023-04-20T23:53:48.443Z,98.74
2023-04-20T23:56:14.889Z,99.00
2023-04-20T23:58:41.349Z,99.29
